sensor_id;sensor_type;location;lat;lon;timestamp;pressure;altitude;pressure_sealevel;temperature;humidity
5780;BME280;2916;49.798;10.022;2022-10-19T00:01:37;147217.22;;;11.89;100.00
5780;BME280;2916;49.798;10.022;2022-10-19T00:04:04;147228.38;;;11.94;100.00
5780;BME280;2916;49.798;10.022;2022-10-19T00:06:34;147207.28;;;11.85;100.00
5780;BME280;2916;49.798;10.022;2022-10-19T00:09:05;147208.50;;;11.86;100.00
5780;BME280;2916;49.798;10.022;2022-10-19T00:11:40;147194.81;;;11.80;100.00
5780;BME280;2916;49.798;10.022;2022-10-19T00:14:10;147191.06;;;11.78;100.00
5780;BME280;2916;49.798;10.022;2022-10-19T00:16:40;147104.13;;;11.43;100.00
5780;BME280;2916;49.798;10.022;2022-10-19T00:19:13;147173.72;;;11.71;100.00
5780;BME280;2916;49.798;10.022;2022-10-19T00:21:40;147124.00;;;11.51;100.00
5780;BME280;2916;49.798;10.022;2022-10-19T00:24:08;146999.84;;;11.00;100.00
5780;BME280;2916;49.798;10.022;2022-10-19T00:26:37;147161.25;;;11.66;100.00
5780;BME280;2916;49.798;10.022;2022-10-19T00:29:05;147151.34;;;11.62;100.00
5780;BME280;2916;49.798;10.022;2022-10-19T00:31:33;147133.94;;;11.55;100.00
5780;BME280;2916;49.798;10.022;2022-10-19T00:34:00;147155.09;;;11.64;100.00
5780;BME280;2916;49.798;10.022;2022-10-19T00:36:31;147124.00;;;11.51;100.00
5780;BME280;2916;49.798;10.022;2022-10-19T00:38:59;147132.69;;;11.54;100.00
5780;BME280;2916;49.798;10.022;2022-10-19T00:41:30;147120.31;;;11.49;100.00
5780;BME280;2916;49.798;10.022;2022-10-19T00:44:02;147145.16;;;11.60;100.00
5780;BME280;2916;49.798;10.022;2022-10-19T00:46:32;147150.09;;;11.62;100.00
5780;BME280;2916;49.798;10.022;2022-10-19T00:49:04;147151.34;;;11.62;100.00
5780;BME280;2916;49.798;10.022;2022-10-19T00:51:36;147155.09;;;11.64;100.00
5780;BME280;2916;49.798;10.022;2022-10-19T00:54:06;147133.94;;;11.55;100.00
5780;BME280;2916;49.798;10.022;2022-10-19T00:56:38;147155.09;;;11.64;100.00
5780;BME280;2916;49.798;10.022;2022-10-19T00:59:07;147129.00;;;11.53;100.00
5780;BME280;2916;49.798;10.022;2022-10-19T01:01:35;147111.59;;;11.46;100.00
5780;BME280;2916;49.798;10.022;2022-10-19T01:04:03;147111.59;;;11.46;100.00
5780;BME280;2916;49.798;10.022;2022-10-19T01:06:32;147143.88;;;11.59;100.00
5780;BME280;2916;49.798;10.022;2022-10-19T01:09:01;147119.06;;;11.49;100.00
5780;BME280;2916;49.798;10.022;2022-10-19T01:11:42;147132.69;;;11.54;100.00
5780;BME280;2916;49.798;10.022;2022-10-19T01:14:27;147124.00;;;11.51;100.00
5780;BME280;2916;49.798;10.022;2022-10-19T01:17:09;147131.47;;;11.54;100.00
5780;BME280;2916;49.798;10.022;2022-10-19T01:20:15;147117.84;;;11.48;100.00
5780;BME280;2916;49.798;10.022;2022-10-19T01:23:11;147117.84;;;11.48;100.00
5780;BME280;2916;49.798;10.022;2022-10-19T01:25:54;147136.47;;;11.56;100.00
5780;BME280;2916;49.798;10.022;2022-10-19T01:28:43;147104.13;;;11.43;100.00
5780;BME280;2916;49.798;10.022;2022-10-19T01:31:24;147135.22;;;11.55;100.00
5780;BME280;2916;49.798;10.022;2022-10-19T01:33:59;147145.16;;;11.60;100.00
5780;BME280;2916;49.798;10.022;2022-10-19T01:36:41;147131.47;;;11.54;100.00
5780;BME280;2916;49.798;10.022;2022-10-19T01:39:19;147119.06;;;11.49;100.00
5780;BME280;2916;49.798;10.022;2022-10-19T01:41:58;147166.25;;;11.68;100.00
5780;BME280;2916;49.798;10.022;2022-10-19T01:44:33;147131.47;;;11.54;100.00
5780;BME280;2916;49.798;10.022;2022-10-19T01:47:08;147150.09;;;11.62;100.00
5780;BME280;2916;49.798;10.022;2022-10-19T01:49:45;147191.06;;;11.78;100.00
5780;BME280;2916;49.798;10.022;2022-10-19T01:52:17;147202.34;;;11.83;100.00
5780;BME280;2916;49.798;10.022;2022-10-19T01:54:50;147054.50;;;11.22;100.00
5780;BME280;2916;49.798;10.022;2022-10-19T01:57:24;147191.06;;;11.78;100.00
5780;BME280;2916;49.798;10.022;2022-10-19T01:59:53;147183.66;;;11.75;100.00
5780;BME280;2916;49.798;10.022;2022-10-19T02:02:25;147219.69;;;11.90;100.00
5780;BME280;2916;49.798;10.022;2022-10-19T02:04:56;147214.75;;;11.88;100.00
5780;BME280;2916;49.798;10.022;2022-10-19T02:07:24;147232.13;;;11.95;100.00
5780;BME280;2916;49.798;10.022;2022-10-19T02:09:52;147243.31;;;12.00;100.00
5780;BME280;2916;49.798;10.022;2022-10-19T02:12:20;147215.97;;;11.89;100.00
5780;BME280;2916;49.798;10.022;2022-10-19T02:14:54;147233.38;;;11.96;100.00
5780;BME280;2916;49.798;10.022;2022-10-19T02:17:30;147245.78;;;12.01;100.00
5780;BME280;2916;49.798;10.022;2022-10-19T02:20:00;147250.78;;;12.03;100.00
5780;BME280;2916;49.798;10.022;2022-10-19T02:22:28;147255.72;;;12.05;100.00
5780;BME280;2916;49.798;10.022;2022-10-19T02:24:55;147265.66;;;12.09;100.00
5780;BME280;2916;49.798;10.022;2022-10-19T02:27:22;147203.56;;;11.84;100.00
5780;BME280;2916;49.798;10.022;2022-10-19T02:29:51;147268.13;;;12.10;100.00
5780;BME280;2916;49.798;10.022;2022-10-19T02:32:19;147256.94;;;12.06;100.00
5780;BME280;2916;49.798;10.022;2022-10-19T02:34:47;147255.72;;;12.05;100.00
5780;BME280;2916;49.798;10.022;2022-10-19T02:37:14;147253.25;;;12.04;100.00
5780;BME280;2916;49.798;10.022;2022-10-19T02:39:42;147260.72;;;12.07;100.00
5780;BME280;2916;49.798;10.022;2022-10-19T02:42:12;147275.59;;;12.13;100.00
5780;BME280;2916;49.798;10.022;2022-10-19T02:44:46;59804.34;;;-145.08;100.00
5780;BME280;2916;49.798;10.022;2022-10-19T02:47:21;59804.34;;;-145.08;100.00
5780;BME280;2916;49.798;10.022;2022-10-19T02:49:53;59804.34;;;-145.08;100.00
5780;BME280;2916;49.798;10.022;2022-10-19T02:52:20;59804.34;;;-145.08;100.00
5780;BME280;2916;49.798;10.022;2022-10-19T02:54:47;59804.34;;;-145.08;100.00
5780;BME280;2916;49.798;10.022;2022-10-19T02:57:17;59804.34;;;-145.08;100.00
5780;BME280;2916;49.798;10.022;2022-10-19T02:59:45;59804.34;;;-145.08;100.00
5780;BME280;2916;49.798;10.022;2022-10-19T03:02:12;59804.34;;;-145.08;100.00
5780;BME280;2916;49.798;10.022;2022-10-19T03:04:39;59804.34;;;-145.08;100.00
5780;BME280;2916;49.798;10.022;2022-10-19T03:07:09;59804.34;;;-145.08;100.00
5780;BME280;2916;49.798;10.022;2022-10-19T03:09:37;59804.34;;;-145.08;100.00
5780;BME280;2916;49.798;10.022;2022-10-19T03:12:04;59804.34;;;-145.08;100.00
5780;BME280;2916;49.798;10.022;2022-10-19T03:14:31;59804.34;;;-145.08;100.00
5780;BME280;2916;49.798;10.022;2022-10-19T03:16:58;59804.34;;;-145.08;100.00
5780;BME280;2916;49.798;10.022;2022-10-19T03:19:25;59804.34;;;-145.08;100.00
5780;BME280;2916;49.798;10.022;2022-10-19T03:21:52;59804.34;;;-145.08;100.00
5780;BME280;2916;49.798;10.022;2022-10-19T03:24:21;59804.34;;;-145.08;100.00
5780;BME280;2916;49.798;10.022;2022-10-19T03:26:48;59804.34;;;-145.08;100.00
5780;BME280;2916;49.798;10.022;2022-10-19T03:29:15;59804.34;;;-145.08;100.00
5780;BME280;2916;49.798;10.022;2022-10-19T03:31:42;59804.34;;;-145.08;100.00
5780;BME280;2916;49.798;10.022;2022-10-19T03:34:10;59804.34;;;-145.08;100.00
5780;BME280;2916;49.798;10.022;2022-10-19T03:36:39;59804.34;;;-145.08;100.00
5780;BME280;2916;49.798;10.022;2022-10-19T03:39:11;59804.34;;;-145.08;100.00
5780;BME280;2916;49.798;10.022;2022-10-19T03:41:40;59804.34;;;-145.08;100.00
5780;BME280;2916;49.798;10.022;2022-10-19T03:44:09;59804.34;;;-145.08;100.00
5780;BME280;2916;49.798;10.022;2022-10-19T03:46:37;59804.34;;;-145.08;100.00
5780;BME280;2916;49.798;10.022;2022-10-19T03:49:05;59804.34;;;-145.08;100.00
5780;BME280;2916;49.798;10.022;2022-10-19T03:51:33;59804.34;;;-145.08;100.00
5780;BME280;2916;49.798;10.022;2022-10-19T03:54:05;59804.34;;;-145.08;100.00
5780;BME280;2916;49.798;10.022;2022-10-19T03:56:34;59804.34;;;-145.08;100.00
5780;BME280;2916;49.798;10.022;2022-10-19T03:59:04;59804.34;;;-145.08;100.00
5780;BME280;2916;49.798;10.022;2022-10-19T04:01:34;59804.34;;;-145.08;100.00
5780;BME280;2916;49.798;10.022;2022-10-19T04:04:08;59804.34;;;-145.08;100.00
5780;BME280;2916;49.798;10.022;2022-10-19T04:06:39;59804.34;;;-145.08;100.00
5780;BME280;2916;49.798;10.022;2022-10-19T04:09:10;59804.34;;;-145.08;100.00
5780;BME280;2916;49.798;10.022;2022-10-19T04:11:38;59804.34;;;-145.08;100.00
5780;BME280;2916;49.798;10.022;2022-10-19T04:14:07;59804.34;;;-145.08;100.00
5780;BME280;2916;49.798;10.022;2022-10-19T04:16:35;59804.34;;;-145.08;100.00
5780;BME280;2916;49.798;10.022;2022-10-19T04:19:02;59804.34;;;-145.08;100.00
5780;BME280;2916;49.798;10.022;2022-10-19T04:21:33;59804.34;;;-145.08;100.00
5780;BME280;2916;49.798;10.022;2022-10-19T04:24:04;59804.34;;;-145.08;100.00
5780;BME280;2916;49.798;10.022;2022-10-19T04:26:33;59804.34;;;-145.08;100.00
5780;BME280;2916;49.798;10.022;2022-10-19T04:29:00;59804.34;;;-145.08;100.00
5780;BME280;2916;49.798;10.022;2022-10-19T04:31:30;59804.34;;;-145.08;100.00
5780;BME280;2916;49.798;10.022;2022-10-19T04:33:57;59804.34;;;-145.08;100.00
5780;BME280;2916;49.798;10.022;2022-10-19T04:36:24;59804.34;;;-145.08;100.00
5780;BME280;2916;49.798;10.022;2022-10-19T04:38:51;59804.34;;;-145.08;100.00
5780;BME280;2916;49.798;10.022;2022-10-19T04:41:20;59804.34;;;-145.08;100.00
5780;BME280;2916;49.798;10.022;2022-10-19T04:43:54;59804.34;;;-145.08;100.00
5780;BME280;2916;49.798;10.022;2022-10-19T04:46:21;59804.34;;;-145.08;100.00
5780;BME280;2916;49.798;10.022;2022-10-19T04:48:51;59804.34;;;-145.08;100.00
5780;BME280;2916;49.798;10.022;2022-10-19T04:51:19;59804.34;;;-145.08;100.00
5780;BME280;2916;49.798;10.022;2022-10-19T04:53:47;59804.34;;;-145.08;100.00
5780;BME280;2916;49.798;10.022;2022-10-19T04:56:18;59804.34;;;-145.08;100.00
5780;BME280;2916;49.798;10.022;2022-10-19T04:58:46;59804.34;;;-145.08;100.00
5780;BME280;2916;49.798;10.022;2022-10-19T05:01:17;59804.34;;;-145.08;100.00
5780;BME280;2916;49.798;10.022;2022-10-19T05:03:44;59804.34;;;-145.08;100.00
5780;BME280;2916;49.798;10.022;2022-10-19T05:06:14;59804.34;;;-145.08;100.00
5780;BME280;2916;49.798;10.022;2022-10-19T05:08:41;59804.34;;;-145.08;100.00
5780;BME280;2916;49.798;10.022;2022-10-19T05:11:12;59804.34;;;-145.08;100.00
5780;BME280;2916;49.798;10.022;2022-10-19T05:13:40;59804.34;;;-145.08;100.00
5780;BME280;2916;49.798;10.022;2022-10-19T05:16:11;59804.34;;;-145.08;100.00
5780;BME280;2916;49.798;10.022;2022-10-19T05:18:39;59804.34;;;-145.08;100.00
5780;BME280;2916;49.798;10.022;2022-10-19T05:21:09;59804.34;;;-145.08;100.00
5780;BME280;2916;49.798;10.022;2022-10-19T05:23:39;59804.34;;;-145.08;100.00
5780;BME280;2916;49.798;10.022;2022-10-19T05:26:09;59804.34;;;-145.08;100.00
5780;BME280;2916;49.798;10.022;2022-10-19T05:28:37;59804.34;;;-145.08;100.00
5780;BME280;2916;49.798;10.022;2022-10-19T05:31:09;59804.34;;;-145.08;100.00
5780;BME280;2916;49.798;10.022;2022-10-19T05:33:37;59804.34;;;-145.08;100.00
5780;BME280;2916;49.798;10.022;2022-10-19T05:36:17;59804.34;;;-145.08;100.00
5780;BME280;2916;49.798;10.022;2022-10-19T05:38:48;59804.34;;;-145.08;100.00
5780;BME280;2916;49.798;10.022;2022-10-19T05:41:18;59804.34;;;-145.08;100.00
5780;BME280;2916;49.798;10.022;2022-10-19T05:43:46;59804.34;;;-145.08;100.00
5780;BME280;2916;49.798;10.022;2022-10-19T05:46:15;59804.34;;;-145.08;100.00
5780;BME280;2916;49.798;10.022;2022-10-19T05:48:44;59804.34;;;-145.08;100.00
5780;BME280;2916;49.798;10.022;2022-10-19T05:51:15;59804.34;;;-145.08;100.00
5780;BME280;2916;49.798;10.022;2022-10-19T05:53:42;59804.34;;;-145.08;100.00
5780;BME280;2916;49.798;10.022;2022-10-19T05:56:15;59804.34;;;-145.08;100.00
5780;BME280;2916;49.798;10.022;2022-10-19T05:58:42;59804.34;;;-145.08;100.00
5780;BME280;2916;49.798;10.022;2022-10-19T06:01:10;59804.34;;;-145.08;100.00
5780;BME280;2916;49.798;10.022;2022-10-19T06:03:38;59804.34;;;-145.08;100.00
5780;BME280;2916;49.798;10.022;2022-10-19T06:06:07;59804.34;;;-145.08;100.00
5780;BME280;2916;49.798;10.022;2022-10-19T06:08:34;59804.34;;;-145.08;100.00
5780;BME280;2916;49.798;10.022;2022-10-19T06:11:08;59804.34;;;-145.08;100.00
5780;BME280;2916;49.798;10.022;2022-10-19T06:13:38;59804.34;;;-145.08;100.00
5780;BME280;2916;49.798;10.022;2022-10-19T06:16:07;59804.34;;;-145.08;100.00
5780;BME280;2916;49.798;10.022;2022-10-19T06:18:35;59804.34;;;-145.08;100.00
5780;BME280;2916;49.798;10.022;2022-10-19T06:21:04;59804.34;;;-145.08;100.00
5780;BME280;2916;49.798;10.022;2022-10-19T06:23:33;59804.34;;;-145.08;100.00
5780;BME280;2916;49.798;10.022;2022-10-19T06:26:04;59804.34;;;-145.08;100.00
5780;BME280;2916;49.798;10.022;2022-10-19T06:28:31;59804.34;;;-145.08;100.00
5780;BME280;2916;49.798;10.022;2022-10-19T06:31:00;59804.34;;;-145.08;100.00
5780;BME280;2916;49.798;10.022;2022-10-19T06:33:28;59804.34;;;-145.08;100.00
5780;BME280;2916;49.798;10.022;2022-10-19T06:36:03;59804.34;;;-145.08;100.00
5780;BME280;2916;49.798;10.022;2022-10-19T06:38:30;59804.34;;;-145.08;100.00
5780;BME280;2916;49.798;10.022;2022-10-19T06:40:58;59804.34;;;-145.08;100.00
5780;BME280;2916;49.798;10.022;2022-10-19T06:43:25;59804.34;;;-145.08;100.00
5780;BME280;2916;49.798;10.022;2022-10-19T06:45:53;59804.34;;;-145.08;100.00
5780;BME280;2916;49.798;10.022;2022-10-19T06:48:22;59804.34;;;-145.08;100.00
5780;BME280;2916;49.798;10.022;2022-10-19T06:50:55;59804.34;;;-145.08;100.00
5780;BME280;2916;49.798;10.022;2022-10-19T06:53:23;59804.34;;;-145.08;100.00
5780;BME280;2916;49.798;10.022;2022-10-19T06:55:50;59804.34;;;-145.08;100.00
5780;BME280;2916;49.798;10.022;2022-10-19T06:58:18;59804.34;;;-145.08;100.00
5780;BME280;2916;49.798;10.022;2022-10-19T07:00:45;59804.34;;;-145.08;100.00
5780;BME280;2916;49.798;10.022;2022-10-19T07:03:12;59804.34;;;-145.08;100.00
5780;BME280;2916;49.798;10.022;2022-10-19T07:05:41;59804.34;;;-145.08;100.00
5780;BME280;2916;49.798;10.022;2022-10-19T07:08:08;59804.34;;;-145.08;100.00
5780;BME280;2916;49.798;10.022;2022-10-19T07:10:35;59804.34;;;-145.08;100.00
5780;BME280;2916;49.798;10.022;2022-10-19T07:13:02;59804.34;;;-145.08;100.00
5780;BME280;2916;49.798;10.022;2022-10-19T07:15:29;59804.34;;;-145.08;100.00
5780;BME280;2916;49.798;10.022;2022-10-19T07:17:57;59804.34;;;-145.08;100.00
5780;BME280;2916;49.798;10.022;2022-10-19T07:20:24;59804.34;;;-145.08;100.00
5780;BME280;2916;49.798;10.022;2022-10-19T07:22:53;59804.34;;;-145.08;100.00
5780;BME280;2916;49.798;10.022;2022-10-19T07:25:20;59804.34;;;-145.08;100.00
5780;BME280;2916;49.798;10.022;2022-10-19T07:27:47;59804.34;;;-145.08;100.00
5780;BME280;2916;49.798;10.022;2022-10-19T07:30:14;59804.34;;;-145.08;100.00
5780;BME280;2916;49.798;10.022;2022-10-19T07:32:41;59804.34;;;-145.08;100.00
5780;BME280;2916;49.798;10.022;2022-10-19T07:35:08;59804.34;;;-145.08;100.00
5780;BME280;2916;49.798;10.022;2022-10-19T07:37:35;59804.34;;;-145.08;100.00
5780;BME280;2916;49.798;10.022;2022-10-19T07:40:05;59804.34;;;-145.08;100.00
5780;BME280;2916;49.798;10.022;2022-10-19T07:42:32;59804.34;;;-145.08;100.00
5780;BME280;2916;49.798;10.022;2022-10-19T07:45:03;59804.34;;;-145.08;100.00
5780;BME280;2916;49.798;10.022;2022-10-19T07:47:30;59804.34;;;-145.08;100.00
5780;BME280;2916;49.798;10.022;2022-10-19T07:49:57;59804.34;;;-145.08;100.00
5780;BME280;2916;49.798;10.022;2022-10-19T07:52:24;59804.34;;;-145.08;100.00
5780;BME280;2916;49.798;10.022;2022-10-19T07:54:51;59804.34;;;-145.08;100.00
5780;BME280;2916;49.798;10.022;2022-10-19T07:57:19;59804.34;;;-145.08;100.00
5780;BME280;2916;49.798;10.022;2022-10-19T07:59:47;59804.34;;;-145.08;100.00
5780;BME280;2916;49.798;10.022;2022-10-19T08:02:15;59804.34;;;-145.08;100.00
5780;BME280;2916;49.798;10.022;2022-10-19T08:04:43;59804.34;;;-145.08;100.00
5780;BME280;2916;49.798;10.022;2022-10-19T08:07:10;59804.34;;;-145.08;100.00
5780;BME280;2916;49.798;10.022;2022-10-19T08:09:37;59804.34;;;-145.08;100.00
5780;BME280;2916;49.798;10.022;2022-10-19T08:12:05;59804.34;;;-145.08;100.00
5780;BME280;2916;49.798;10.022;2022-10-19T08:14:34;59804.34;;;-145.08;100.00
5780;BME280;2916;49.798;10.022;2022-10-19T08:17:02;59804.34;;;-145.08;100.00
5780;BME280;2916;49.798;10.022;2022-10-19T08:19:29;59804.34;;;-145.08;100.00
5780;BME280;2916;49.798;10.022;2022-10-19T08:21:56;59804.34;;;-145.08;100.00
5780;BME280;2916;49.798;10.022;2022-10-19T08:24:23;59804.34;;;-145.08;100.00
5780;BME280;2916;49.798;10.022;2022-10-19T08:26:50;59804.34;;;-145.08;100.00
5780;BME280;2916;49.798;10.022;2022-10-19T08:29:19;59804.34;;;-145.08;100.00
5780;BME280;2916;49.798;10.022;2022-10-19T08:31:48;59804.34;;;-145.08;100.00
5780;BME280;2916;49.798;10.022;2022-10-19T08:34:16;59804.34;;;-145.08;100.00
5780;BME280;2916;49.798;10.022;2022-10-19T08:36:44;59804.34;;;-145.08;100.00
5780;BME280;2916;49.798;10.022;2022-10-19T08:39:12;59804.34;;;-145.08;100.00
5780;BME280;2916;49.798;10.022;2022-10-19T08:41:59;59804.34;;;-145.08;100.00
5780;BME280;2916;49.798;10.022;2022-10-19T08:45:02;59804.34;;;-145.08;100.00
5780;BME280;2916;49.798;10.022;2022-10-19T08:47:55;59804.34;;;-145.08;100.00
5780;BME280;2916;49.798;10.022;2022-10-19T08:50:27;59804.34;;;-145.08;100.00
5780;BME280;2916;49.798;10.022;2022-10-19T08:53:02;59804.34;;;-145.08;100.00
5780;BME280;2916;49.798;10.022;2022-10-19T08:55:42;59804.34;;;-145.08;100.00
5780;BME280;2916;49.798;10.022;2022-10-19T08:58:25;59804.34;;;-145.08;100.00
5780;BME280;2916;49.798;10.022;2022-10-19T09:01:04;59804.34;;;-145.08;100.00
5780;BME280;2916;49.798;10.022;2022-10-19T09:03:43;59804.34;;;-145.08;100.00
5780;BME280;2916;49.798;10.022;2022-10-19T09:06:19;59804.34;;;-145.08;100.00
5780;BME280;2916;49.798;10.022;2022-10-19T09:08:51;59804.34;;;-145.08;100.00
5780;BME280;2916;49.798;10.022;2022-10-19T09:11:24;59804.34;;;-145.08;100.00
5780;BME280;2916;49.798;10.022;2022-10-19T09:14:02;59804.34;;;-145.08;100.00
5780;BME280;2916;49.798;10.022;2022-10-19T09:16:32;59804.34;;;-145.08;100.00
5780;BME280;2916;49.798;10.022;2022-10-19T09:19:04;59804.34;;;-145.08;100.00
5780;BME280;2916;49.798;10.022;2022-10-19T09:21:47;59804.34;;;-145.08;100.00
5780;BME280;2916;49.798;10.022;2022-10-19T09:24:27;59804.34;;;-145.08;100.00
5780;BME280;2916;49.798;10.022;2022-10-19T09:26:58;59804.34;;;-145.08;100.00
5780;BME280;2916;49.798;10.022;2022-10-19T09:29:35;59804.34;;;-145.08;100.00
5780;BME280;2916;49.798;10.022;2022-10-19T09:32:10;59804.34;;;-145.08;100.00
5780;BME280;2916;49.798;10.022;2022-10-19T09:34:45;59804.34;;;-145.08;100.00
5780;BME280;2916;49.798;10.022;2022-10-19T09:37:16;59804.34;;;-145.08;100.00
5780;BME280;2916;49.798;10.022;2022-10-19T09:39:45;59804.34;;;-145.08;100.00
5780;BME280;2916;49.798;10.022;2022-10-19T09:42:20;59804.34;;;-145.08;100.00
5780;BME280;2916;49.798;10.022;2022-10-19T09:44:51;59804.34;;;-145.08;100.00
5780;BME280;2916;49.798;10.022;2022-10-19T09:47:35;59804.34;;;-145.08;100.00
5780;BME280;2916;49.798;10.022;2022-10-19T09:50:18;59804.34;;;-145.08;100.00
5780;BME280;2916;49.798;10.022;2022-10-19T09:52:46;59804.34;;;-145.08;100.00
5780;BME280;2916;49.798;10.022;2022-10-19T09:55:26;59804.34;;;-145.08;100.00
5780;BME280;2916;49.798;10.022;2022-10-19T09:58:02;59804.34;;;-145.08;100.00
5780;BME280;2916;49.798;10.022;2022-10-19T10:00:37;59804.34;;;-145.08;100.00
5780;BME280;2916;49.798;10.022;2022-10-19T10:03:05;59804.34;;;-145.08;100.00
5780;BME280;2916;49.798;10.022;2022-10-19T10:05:37;59804.34;;;-145.08;100.00
5780;BME280;2916;49.798;10.022;2022-10-19T10:08:13;59804.34;;;-145.08;100.00
5780;BME280;2916;49.798;10.022;2022-10-19T10:10:45;59804.34;;;-145.08;100.00
5780;BME280;2916;49.798;10.022;2022-10-19T10:13:18;59804.34;;;-145.08;100.00
5780;BME280;2916;49.798;10.022;2022-10-19T10:15:50;59804.34;;;-145.08;100.00
5780;BME280;2916;49.798;10.022;2022-10-19T10:18:23;59804.34;;;-145.08;100.00
5780;BME280;2916;49.798;10.022;2022-10-19T10:21:00;59804.34;;;-145.08;100.00
5780;BME280;2916;49.798;10.022;2022-10-19T10:23:31;59804.34;;;-145.08;100.00
5780;BME280;2916;49.798;10.022;2022-10-19T10:26:02;59804.34;;;-145.08;100.00
5780;BME280;2916;49.798;10.022;2022-10-19T10:28:31;59804.34;;;-145.08;100.00
5780;BME280;2916;49.798;10.022;2022-10-19T10:31:02;59804.34;;;-145.08;100.00
5780;BME280;2916;49.798;10.022;2022-10-19T10:33:35;59804.34;;;-145.08;100.00
5780;BME280;2916;49.798;10.022;2022-10-19T10:36:07;59804.34;;;-145.08;100.00
5780;BME280;2916;49.798;10.022;2022-10-19T10:38:39;59804.34;;;-145.08;100.00
5780;BME280;2916;49.798;10.022;2022-10-19T10:41:13;59804.34;;;-145.08;100.00
5780;BME280;2916;49.798;10.022;2022-10-19T10:43:54;59804.34;;;-145.08;100.00
5780;BME280;2916;49.798;10.022;2022-10-19T10:46:26;59804.34;;;-145.08;100.00
5780;BME280;2916;49.798;10.022;2022-10-19T10:48:57;59804.34;;;-145.08;100.00
5780;BME280;2916;49.798;10.022;2022-10-19T10:51:36;59804.34;;;-145.08;100.00
5780;BME280;2916;49.798;10.022;2022-10-19T10:54:18;59804.34;;;-145.08;100.00
5780;BME280;2916;49.798;10.022;2022-10-19T10:57:02;59804.34;;;-145.08;100.00
5780;BME280;2916;49.798;10.022;2022-10-19T10:59:36;59804.34;;;-145.08;100.00
5780;BME280;2916;49.798;10.022;2022-10-19T11:02:22;59804.34;;;-145.08;100.00
5780;BME280;2916;49.798;10.022;2022-10-19T11:04:56;59804.34;;;-145.08;100.00
5780;BME280;2916;49.798;10.022;2022-10-19T11:07:29;59804.34;;;-145.08;100.00
5780;BME280;2916;49.798;10.022;2022-10-19T11:10:02;59804.34;;;-145.08;100.00
5780;BME280;2916;49.798;10.022;2022-10-19T11:12:40;59804.34;;;-145.08;100.00
5780;BME280;2916;49.798;10.022;2022-10-19T11:15:21;59804.34;;;-145.08;100.00
5780;BME280;2916;49.798;10.022;2022-10-19T11:18:12;59804.34;;;-145.08;100.00
5780;BME280;2916;49.798;10.022;2022-10-19T11:20:49;59804.34;;;-145.08;100.00
5780;BME280;2916;49.798;10.022;2022-10-19T11:23:35;59804.34;;;-145.08;100.00
5780;BME280;2916;49.798;10.022;2022-10-19T11:26:18;59804.34;;;-145.08;100.00
5780;BME280;2916;49.798;10.022;2022-10-19T11:29:08;59804.34;;;-145.08;100.00
5780;BME280;2916;49.798;10.022;2022-10-19T11:31:45;59804.34;;;-145.08;100.00
5780;BME280;2916;49.798;10.022;2022-10-19T11:34:37;59804.34;;;-145.08;100.00
5780;BME280;2916;49.798;10.022;2022-10-19T11:37:19;59804.34;;;-145.08;100.00
5780;BME280;2916;49.798;10.022;2022-10-19T11:40:04;59804.34;;;-145.08;100.00
5780;BME280;2916;49.798;10.022;2022-10-19T11:42:52;59804.34;;;-145.08;100.00
5780;BME280;2916;49.798;10.022;2022-10-19T11:45:37;59804.34;;;-145.08;100.00
5780;BME280;2916;49.798;10.022;2022-10-19T11:48:27;59804.34;;;-145.08;100.00
5780;BME280;2916;49.798;10.022;2022-10-19T11:51:02;59804.34;;;-145.08;100.00
5780;BME280;2916;49.798;10.022;2022-10-19T11:53:44;59804.34;;;-145.08;100.00
5780;BME280;2916;49.798;10.022;2022-10-19T11:56:20;59804.34;;;-145.08;100.00
5780;BME280;2916;49.798;10.022;2022-10-19T11:59:03;59804.34;;;-145.08;100.00
5780;BME280;2916;49.798;10.022;2022-10-19T12:01:49;59804.34;;;-145.08;100.00
5780;BME280;2916;49.798;10.022;2022-10-19T12:04:45;59804.34;;;-145.08;100.00
5780;BME280;2916;49.798;10.022;2022-10-19T12:07:39;59804.34;;;-145.08;100.00
5780;BME280;2916;49.798;10.022;2022-10-19T12:10:20;59804.34;;;-145.08;100.00
5780;BME280;2916;49.798;10.022;2022-10-19T12:12:55;59804.34;;;-145.08;100.00
5780;BME280;2916;49.798;10.022;2022-10-19T12:15:29;59804.34;;;-145.08;100.00
5780;BME280;2916;49.798;10.022;2022-10-19T12:18:05;59804.34;;;-145.08;100.00
5780;BME280;2916;49.798;10.022;2022-10-19T12:20:42;59804.34;;;-145.08;100.00
5780;BME280;2916;49.798;10.022;2022-10-19T12:23:25;59804.34;;;-145.08;100.00
5780;BME280;2916;49.798;10.022;2022-10-19T12:25:56;59804.34;;;-145.08;100.00
5780;BME280;2916;49.798;10.022;2022-10-19T12:28:30;59804.34;;;-145.08;100.00
5780;BME280;2916;49.798;10.022;2022-10-19T12:31:00;59804.34;;;-145.08;100.00
5780;BME280;2916;49.798;10.022;2022-10-19T12:33:39;59804.34;;;-145.08;100.00
5780;BME280;2916;49.798;10.022;2022-10-19T12:36:30;59804.34;;;-145.08;100.00
5780;BME280;2916;49.798;10.022;2022-10-19T12:39:11;59804.34;;;-145.08;100.00
5780;BME280;2916;49.798;10.022;2022-10-19T12:41:46;59804.34;;;-145.08;100.00
5780;BME280;2916;49.798;10.022;2022-10-19T12:44:54;59804.34;;;-145.08;100.00
5780;BME280;2916;49.798;10.022;2022-10-19T12:47:24;59804.34;;;-145.08;100.00
5780;BME280;2916;49.798;10.022;2022-10-19T12:49:52;59804.34;;;-145.08;100.00
5780;BME280;2916;49.798;10.022;2022-10-19T12:52:40;59804.34;;;-145.08;100.00
5780;BME280;2916;49.798;10.022;2022-10-19T12:55:27;59804.34;;;-145.08;100.00
5780;BME280;2916;49.798;10.022;2022-10-19T12:58:03;59804.34;;;-145.08;100.00
5780;BME280;2916;49.798;10.022;2022-10-19T13:00:35;59804.34;;;-145.08;100.00
5780;BME280;2916;49.798;10.022;2022-10-19T13:03:12;59804.34;;;-145.08;100.00
5780;BME280;2916;49.798;10.022;2022-10-19T13:05:40;59804.34;;;-145.08;100.00
5780;BME280;2916;49.798;10.022;2022-10-19T13:08:08;59804.34;;;-145.08;100.00
5780;BME280;2916;49.798;10.022;2022-10-19T13:10:35;59804.34;;;-145.08;100.00